Time;durP1;ratioP1;P1;durP2;ratioP2;P2;SDS_P1;SDS_P2;PMS_P1;PMS_P2;Temp;Humidity;BMP_temperature;BMP_pressure;BME280_temperature;BME280_humidity;BME280_pressure;Samples;Min_cycle;Max_cycle;Signal;HPM_P1;HPM_P2
2023/10/11 00:02:53;;;;;;;;;;;;;;;15.50;80.56;101367.81;5043670;28;1994;-74
2023/10/11 00:05:19;;;;;;;;;;;;;;;15.48;80.32;101360.09;5044640;28;1122;-74
2023/10/11 00:07:44;;;;;;;;;;;;;;;15.46;80.40;101366.44;5047200;28;1150;-74
2023/10/11 00:10:10;;;;;;;;;;;;;;;15.45;80.48;101363.00;5046823;28;1067;-74
2023/10/11 00:12:36;;;;;;;;;;;;;;;15.46;80.09;101362.03;5046199;28;1478;-74
2023/10/11 00:15:02;;;;;;;;;;;;;;;15.46;79.94;101371.66;5049954;28;1125;-73
2023/10/11 00:17:28;;;;;;;;;;;;;;;15.44;80.07;101369.22;5049064;28;1195;-75
2023/10/11 00:19:53;;;;;;;;;;;;;;;15.43;80.24;101375.41;5044642;28;1219;-74
2023/10/11 00:22:18;;;;;;;;;;;;;;;15.40;79.58;101376.50;5044625;28;1910;-74
2023/10/11 00:24:44;;;;;;;;;;;;;;;15.40;80.08;101371.28;5041754;28;1399;-75
2023/10/11 00:27:10;;;;;;;;;;;;;;;15.38;79.87;101365.38;5041563;28;1146;-75
2023/10/11 00:29:39;;;;;;;;;;;;;;;15.37;79.99;101361.13;5046070;28;1217;-75
2023/10/11 00:32:04;;;;;;;;;;;;;;;15.37;79.82;101363.72;5048056;28;1350;-75
2023/10/11 00:34:29;;;;;;;;;;;;;;;15.36;79.98;101359.44;5044611;28;1116;-74
2023/10/11 00:36:54;;;;;;;;;;;;;;;15.36;80.17;101356.84;5047031;28;1185;-76
2023/10/11 00:39:19;;;;;;;;;;;;;;;15.34;79.89;101348.31;5046631;28;1184;-74
2023/10/11 00:41:48;;;;;;;;;;;;;;;15.35;80.19;101346.53;5051813;28;1897;-74
2023/10/11 00:44:19;;;;;;;;;;;;;;;15.34;80.23;101353.56;5044452;28;1276;-74
2023/10/11 00:47:08;;;;;;;;;;;;;;;15.35;80.06;101349.16;5048880;28;1260;-74
2023/10/11 00:49:39;;;;;;;;;;;;;;;15.33;79.94;101346.69;5048400;28;1177;-75
2023/10/11 00:52:06;;;;;;;;;;;;;;;15.31;79.88;101351.25;5044388;28;1256;-75
2023/10/11 00:54:33;;;;;;;;;;;;;;;15.32;79.91;101350.28;5043616;28;1078;-74
2023/10/11 00:56:58;;;;;;;;;;;;;;;15.33;80.01;101341.47;5040698;28;1260;-75
2023/10/11 00:59:23;;;;;;;;;;;;;;;15.31;79.68;101346.00;5043549;28;971;-75
2023/10/11 01:01:51;;;;;;;;;;;;;;;15.33;79.85;101344.06;5045279;28;1973;-75
2023/10/11 01:04:18;;;;;;;;;;;;;;;15.33;79.88;101346.69;5036638;28;1268;-74
2023/10/11 01:06:44;;;;;;;;;;;;;;;15.32;79.61;101352.88;5032175;28;1227;-75
2023/10/11 01:09:15;;;;;;;;;;;;;;;15.31;80.16;101348.63;5046874;28;1118;-75
2023/10/11 01:11:40;;;;;;;;;;;;;;;15.31;80.16;101343.41;5033090;28;1290;-74
2023/10/11 01:14:06;;;;;;;;;;;;;;;15.30;80.15;101341.72;5033473;28;1270;-74
2023/10/11 01:16:31;;;;;;;;;;;;;;;15.30;79.79;101335.69;5049422;28;1145;-74
2023/10/11 01:18:57;;;;;;;;;;;;;;;15.26;80.04;101335.16;5045041;28;1214;-74
2023/10/11 01:21:22;;;;;;;;;;;;;;;15.26;80.07;101329.94;5047936;28;1197;-75
2023/10/11 01:23:48;;;;;;;;;;;;;;;15.25;79.93;101328.25;5042735;28;1886;-75
2023/10/11 01:26:15;;;;;;;;;;;;;;;15.26;79.98;101318.66;5044092;28;1148;-75
2023/10/11 01:28:41;;;;;;;;;;;;;;;15.23;80.32;101324.97;5045062;28;1193;-74
2023/10/11 01:31:10;;;;;;;;;;;;;;;15.22;79.84;101320.72;5045795;28;1277;-77
2023/10/11 01:33:36;;;;;;;;;;;;;;;15.20;80.26;101319.22;5045743;28;1245;-74
2023/10/11 01:36:05;;;;;;;;;;;;;;;15.21;80.37;101321.69;5053030;28;1119;-74
2023/10/11 01:38:32;;;;;;;;;;;;;;;15.22;80.32;101317.28;5047529;28;1225;-74
2023/10/11 01:40:58;;;;;;;;;;;;;;;15.20;80.43;101319.22;5047174;28;1182;-76
2023/10/11 01:43:23;;;;;;;;;;;;;;;15.18;80.27;101311.50;5036288;28;1898;-76
2023/10/11 01:45:48;;;;;;;;;;;;;;;15.17;80.09;101315.09;5050936;28;1213;-76
2023/10/11 01:48:15;;;;;;;;;;;;;;;15.17;80.67;101312.50;5032828;28;1398;-74
2023/10/11 01:50:40;;;;;;;;;;;;;;;15.14;80.46;101303.16;5049642;28;1399;-74
2023/10/11 01:53:08;;;;;;;;;;;;;;;15.16;80.47;101305.63;5052962;28;1095;-75
2023/10/11 01:55:33;;;;;;;;;;;;;;;15.13;80.85;101298.06;5035418;28;1252;-75
2023/10/11 01:58:00;;;;;;;;;;;;;;;15.13;80.52;101292.81;5048627;28;1372;-75
2023/10/11 02:00:29;;;;;;;;;;;;;;;15.12;80.86;101291.19;5049529;28;1193;-75
2023/10/11 02:02:57;;;;;;;;;;;;;;;15.11;80.84;101300.00;5050939;28;1918;-74
2023/10/11 02:05:23;;;;;;;;;;;;;;;15.11;80.64;101300.00;5032449;28;1353;-75
2023/10/11 02:07:48;;;;;;;;;;;;;;;15.11;80.43;101300.00;5049081;28;1125;-74
2023/10/11 02:10:13;;;;;;;;;;;;;;;15.10;80.56;101295.75;5052507;28;1093;-74
2023/10/11 02:12:40;;;;;;;;;;;;;;;15.09;81.10;101291.50;5053054;28;1430;-76
2023/10/11 02:15:07;;;;;;;;;;;;;;;15.09;80.74;101286.25;5048079;28;1192;-74
2023/10/11 02:17:37;;;;;;;;;;;;;;;15.09;80.63;101281.88;5049006;28;1040;-76
2023/10/11 02:20:04;;;;;;;;;;;;;;;15.09;80.78;101286.25;5034181;28;1063;-75
2023/10/11 02:22:32;;;;;;;;;;;;;;;15.05;81.13;101279.66;5034583;28;1898;-75
2023/10/11 02:24:59;;;;;;;;;;;;;;;15.04;80.68;101272.81;5051022;28;1400;-74
2023/10/11 02:27:25;;;;;;;;;;;;;;;15.02;81.14;101277.34;5049609;28;1072;-75
2023/10/11 02:29:50;;;;;;;;;;;;;;;15.00;80.95;101276.66;5049696;28;1060;-75
2023/10/11 02:32:15;;;;;;;;;;;;;;;14.98;81.11;101273.38;5034560;28;2554;-74
2023/10/11 02:34:42;;;;;;;;;;;;;;;14.97;81.09;101271.75;5049759;28;1135;-74
2023/10/11 02:37:10;;;;;;;;;;;;;;;14.95;81.13;101268.44;5050028;28;1073;-75
2023/10/11 02:39:42;;;;;;;;;;;;;;;14.94;81.23;101272.81;5042732;28;1128;-76
2023/10/11 02:42:07;;;;;;;;;;;;;;;14.91;81.36;101261.84;5042945;28;1985;-74
2023/10/11 02:44:33;;;;;;;;;;;;;;;14.89;81.03;101275.03;5036224;28;1438;-74
2023/10/11 02:47:00;;;;;;;;;;;;;;;14.90;81.48;101270.63;5040564;28;1484;-76
2023/10/11 02:49:31;;;;;;;;;;;;;;;14.82;81.40;101269.56;5041696;28;1191;-74
2023/10/11 02:51:57;;;;;;;;;;;;;;;14.80;81.49;101271.50;5041224;28;1180;-74
2023/10/11 02:54:38;;;;;;;;;;;;;;;14.80;81.43;101265.47;5052090;28;1276;-75
2023/10/11 02:57:06;;;;;;;;;;;;;;;14.78;81.70;101262.97;5036782;28;1169;-76
2023/10/11 02:59:33;;;;;;;;;;;;;;;14.76;81.61;101259.69;5050667;28;995;-75
2023/10/11 03:02:01;;;;;;;;;;;;;;;14.74;81.77;101255.59;5049294;28;1894;-74
2023/10/11 03:04:34;;;;;;;;;;;;;;;14.72;82.55;101253.09;5044159;28;1209;-74
2023/10/11 03:07:00;;;;;;;;;;;;;;;14.70;81.95;101239.38;5049646;28;1316;-75
2023/10/11 03:09:26;;;;;;;;;;;;;;;14.67;82.33;101239.63;5053098;28;1233;-74
2023/10/11 03:11:52;;;;;;;;;;;;;;;14.66;82.66;101243.22;5052588;28;1210;-74
2023/10/11 03:14:20;;;;;;;;;;;;;;;14.67;82.07;101250.09;5047581;28;1440;-75
2023/10/11 03:16:47;;;;;;;;;;;;;;;14.64;82.46;101254.78;5050841;28;1150;-74
2023/10/11 03:19:12;;;;;;;;;;;;;;;14.63;82.27;101259.19;5052094;28;1246;-75
2023/10/11 03:21:37;;;;;;;;;;;;;;;14.60;82.49;101256.84;5051311;28;1189;-74
2023/10/11 03:24:05;;;;;;;;;;;;;;;14.57;82.69;101259.75;5048477;28;1918;-74
2023/10/11 03:28:59;;;;;;;;;;;;;;;14.54;82.89;101239.13;5052175;28;1223;-75
2023/10/11 03:31:28;;;;;;;;;;;;;;;14.53;82.89;101253.16;5044937;28;1201;-75
2023/10/11 03:34:10;;;;;;;;;;;;;;;14.51;82.95;101244.66;5031973;28;1259;-74
2023/10/11 03:36:43;;;;;;;;;;;;;;;14.48;83.31;101247.53;5047258;28;1194;-74
2023/10/11 03:39:10;;;;;;;;;;;;;;;14.45;83.27;101251.22;5042502;28;1165;-74
2023/10/11 03:41:36;;;;;;;;;;;;;;;14.44;83.43;101238.28;5030227;28;1636;-74
2023/10/11 03:44:09;;;;;;;;;;;;;;;14.43;83.46;101241.88;5028499;28;1913;-75
2023/10/11 03:46:35;;;;;;;;;;;;;;;14.40;83.80;101242.16;5042114;28;1088;-76
2023/10/11 03:49:32;;;;;;;;;;;;;;;14.40;83.94;101236.94;5042730;28;1186;-75
2023/10/11 03:51:48;;;;;;;;;;;;;;;14.38;84.08;101225.81;5038083;28;1116;-74
2023/10/11 03:54:23;;;;;;;;;;;;;;;14.37;84.16;101229.38;5051977;28;1205;-74
2023/10/11 03:57:04;;;;;;;;;;;;;;;14.35;83.99;101214.69;5040913;28;1187;-74
2023/10/11 03:59:36;;;;;;;;;;;;;;;14.33;84.12;101221.81;5047477;28;1281;-74
2023/10/11 04:02:03;;;;;;;;;;;;;;;14.32;84.35;101209.75;5043906;28;1919;-77
2023/10/11 04:04:28;;;;;;;;;;;;;;;14.31;84.51;101218.53;5048364;28;1249;-74
2023/10/11 04:07:00;;;;;;;;;;;;;;;14.30;84.32;101221.28;5042274;28;1411;-75
2023/10/11 04:09:32;;;;;;;;;;;;;;;14.29;84.66;101212.66;5044840;28;1624;-75
2023/10/11 04:12:02;;;;;;;;;;;;;;;14.27;84.34;101221.56;5030802;28;1047;-75
2023/10/11 04:14:39;;;;;;;;;;;;;;;14.26;84.87;101215.50;5045007;28;1195;-74
2023/10/11 04:17:26;;;;;;;;;;;;;;;14.27;84.99;101213.72;5029408;28;1373;-74
2023/10/11 04:19:59;;;;;;;;;;;;;;;14.25;84.92;101208.66;5040109;28;1211;-74
2023/10/11 04:22:25;;;;;;;;;;;;;;;14.22;85.11;101224.59;5054895;28;1893;-74
2023/10/11 04:24:53;;;;;;;;;;;;;;;14.22;85.24;101229.81;5047937;28;1465;-74
2023/10/11 04:29:52;;;;;;;;;;;;;;;14.22;85.42;101216.78;5046858;28;1073;-74
2023/10/11 04:35:02;;;;;;;;;;;;;;;14.18;85.28;101214.56;5042671;28;977;-74
2023/10/11 04:37:27;;;;;;;;;;;;;;;14.18;85.21;101218.00;5044287;28;1019;-75
2023/10/11 04:39:56;;;;;;;;;;;;;;;14.17;85.48;101216.38;5042508;28;1266;-74
2023/10/11 04:42:27;;;;;;;;;;;;;;;14.16;85.61;101222.53;5045714;28;1995;-74
2023/10/11 04:44:56;;;;;;;;;;;;;;;14.13;85.56;101225.44;5049184;28;1321;-74
2023/10/11 04:47:23;;;;;;;;;;;;;;;14.14;85.66;101242.72;5032730;28;1252;-75
2023/10/11 04:49:48;;;;;;;;;;;;;;;14.11;85.71;101237.78;5031807;28;1180;-76
2023/10/11 04:52:22;;;;;;;;;;;;;;;14.09;85.92;101257.94;5052842;28;1220;-75
2023/10/11 04:54:54;;;;;;;;;;;;;;;14.05;86.01;101254.81;5052506;28;1174;-74
2023/10/11 04:57:24;;;;;;;;;;;;;;;14.01;86.34;101248.22;5054156;28;1201;-73
2023/10/11 04:59:51;;;;;;;;;;;;;;;13.99;86.46;101233.66;5050864;28;1037;-74
2023/10/11 05:02:22;;;;;;;;;;;;;;;13.97;86.44;101232.97;5050121;28;1901;-74
2023/10/11 05:04:51;;;;;;;;;;;;;;;13.97;86.87;101225.16;5043279;28;1273;-75
2023/10/11 05:07:19;;;;;;;;;;;;;;;13.97;86.93;101220.75;5043117;28;1195;-74
2023/10/11 05:09:52;;;;;;;;;;;;;;;13.99;86.56;101233.66;5035283;28;1040;-75
2023/10/11 05:12:21;;;;;;;;;;;;;;;13.97;86.71;101241.63;5038827;28;1337;-76
2023/10/11 05:19:45;;;;;;;;;;;;;;;13.97;87.07;101246.00;5051213;28;1273;-75
2023/10/11 05:22:49;;;;;;;;;;;;;;;13.97;87.33;101246.00;5055634;28;1957;-74
2023/10/11 05:28:07;;;;;;;;;;;;;;;13.99;87.24;101264.94;5050751;28;1419;-74
2023/10/11 05:30:32;;;;;;;;;;;;;;;13.98;87.35;101263.31;5048918;28;1189;-75
2023/10/11 05:52:14;;;;;;;;;;;;;;;13.97;87.83;101246.00;5052771;28;1221;-74
2023/10/11 05:54:40;;;;;;;;;;;;;;;13.94;88.48;101246.31;5035606;28;1193;-74
2023/10/11 05:57:06;;;;;;;;;;;;;;;13.93;88.30;101244.63;5047780;28;1156;-75
2023/10/11 05:59:37;;;;;;;;;;;;;;;13.94;88.49;101238.47;5051673;28;1256;-75
2023/10/11 06:02:13;;;;;;;;;;;;;;;13.95;88.38;101237.50;5028103;28;1895;-74
2023/10/11 06:04:41;;;;;;;;;;;;;;;13.96;88.71;101244.38;5032587;28;1214;-74
2023/10/11 06:07:07;;;;;;;;;;;;;;;13.95;88.88;101245.34;5049216;28;1103;-76
2023/10/11 06:09:39;;;;;;;;;;;;;;;13.96;88.70;101233.94;5049928;28;1086;-75
2023/10/11 06:12:04;;;;;;;;;;;;;;;13.97;88.98;101235.59;5049517;28;1147;-75
2023/10/11 06:14:30;;;;;;;;;;;;;;;13.98;89.37;101232.00;5050043;28;1317;-74
2023/10/11 06:16:57;;;;;;;;;;;;;;;13.99;89.50;101238.88;5049185;28;1013;-74
2023/10/11 06:19:26;;;;;;;;;;;;;;;13.99;88.93;101234.50;5036517;28;1203;-75
2023/10/11 06:21:57;;;;;;;;;;;;;;;13.99;89.46;101244.09;5049921;28;1953;-76
2023/10/11 06:24:23;;;;;;;;;;;;;;;14.01;89.14;101242.19;5054687;28;1518;-74
2023/10/11 06:29:17;;;;;;;;;;;;;;;14.04;89.64;101236.66;5047540;28;1084;-75
2023/10/11 06:31:45;;;;;;;;;;;;;;;14.05;89.85;101248.78;5026165;28;1561;-76
2023/10/11 06:36:51;;;;;;;;;;;;;;;14.09;89.41;101245.72;5049930;28;1056;-75
2023/10/11 06:42:06;;;;;;;;;;;;;;;14.14;90.08;101242.72;5050216;28;1972;-75
2023/10/11 06:44:33;;;;;;;;;;;;;;;14.17;90.56;101231.19;5044880;28;918;-74
2023/10/11 06:47:03;;;;;;;;;;;;;;;14.18;90.61;101228.44;5042283;28;1382;-75
2023/10/11 06:49:28;;;;;;;;;;;;;;;14.21;90.87;101233.38;5025295;28;1460;-75
2023/10/11 06:51:53;;;;;;;;;;;;;;;14.23;90.88;101236.69;5033716;28;1315;-75
2023/10/11 06:54:23;;;;;;;;;;;;;;;14.29;90.54;101246.56;5044800;28;1315;-76
2023/10/11 06:56:50;;;;;;;;;;;;;;;14.32;90.67;101242.84;5043959;28;1168;-76
2023/10/11 06:59:15;;;;;;;;;;;;;;;14.35;91.06;101261.66;5049035;28;1508;-76
2023/10/11 07:01:41;;;;;;;;;;;;;;;14.39;91.01;101269.19;5028577;28;1544;-76
2023/10/11 07:04:06;;;;;;;;;;;;;;;14.41;91.55;101265.50;5044363;28;1968;-74
2023/10/11 07:06:35;;;;;;;;;;;;;;;14.44;91.60;101259.16;5034225;28;1409;-75
2023/10/11 07:09:05;;;;;;;;;;;;;;;14.48;91.57;101268.41;5039934;28;1123;-74
2023/10/11 07:11:50;;;;;;;;;;;;;;;14.47;91.91;101279.81;5051598;28;1129;-75
2023/10/11 07:14:15;;;;;;;;;;;;;;;14.51;91.72;101286.41;5044985;28;1201;-74
2023/10/11 07:16:42;;;;;;;;;;;;;;;14.54;92.18;101280.91;5043430;28;1094;-75
2023/10/11 07:19:09;;;;;;;;;;;;;;;14.56;92.01;101278.97;5026166;28;1486;-75
2023/10/11 07:27:12;;;;;;;;;;;;;;;14.64;92.80;101266.03;5013086;28;1692;-76
2023/10/11 07:29:42;;;;;;;;;;;;;;;14.67;92.79;101260.53;5043217;28;1213;-74
2023/10/11 07:32:09;;;;;;;;;;;;;;;14.69;92.66;101258.63;5025287;28;1408;-77
2023/10/11 07:34:36;;;;;;;;;;;;;;;14.74;92.58;101261.63;5046512;28;1072;-75
2023/10/11 07:37:05;;;;;;;;;;;;;;;14.80;93.32;101265.47;5033357;28;1303;-75
2023/10/11 07:39:33;;;;;;;;;;;;;;;14.82;93.74;101272.19;5027602;28;1233;-76
2023/10/11 07:44:29;;;;;;;;;;;;;;;14.92;93.00;101273.94;5048237;28;1150;-74
2023/10/11 07:46:55;;;;;;;;;;;;;;;14.94;93.78;101270.22;5047882;28;1118;-76
2023/10/11 07:49:23;;;;;;;;;;;;;;;15.01;93.20;101280.91;5051113;28;1191;-76
2023/10/11 07:51:52;;;;;;;;;;;;;;;15.04;93.77;101288.47;5025262;28;1279;-77
2023/10/11 07:54:21;;;;;;;;;;;;;;;15.06;94.04;101294.38;5045535;28;1275;-75
2023/10/11 07:56:47;;;;;;;;;;;;;;;15.13;93.91;101292.81;5029255;28;1226;-74
2023/10/11 07:59:13;;;;;;;;;;;;;;;15.12;93.98;101297.22;5047957;28;1320;-74
2023/10/11 08:01:44;;;;;;;;;;;;;;;15.15;94.15;101301.38;5031282;28;1307;-75
2023/10/11 08:04:11;;;;;;;;;;;;;;;15.15;94.09;101290.91;5048745;28;1926;-74
2023/10/11 08:06:39;;;;;;;;;;;;;;;15.16;94.15;101296.97;5053689;28;1292;-74
2023/10/11 08:09:06;;;;;;;;;;;;;;;15.18;94.55;101280.16;5048026;28;1060;-74
2023/10/11 08:11:44;;;;;;;;;;;;;;;15.20;95.13;101288.69;5048595;28;1098;-75
2023/10/11 08:14:16;;;;;;;;;;;;;;;15.22;94.87;101281.53;5036891;28;1587;-77
2023/10/11 08:16:47;;;;;;;;;;;;;;;15.28;95.64;101280.13;5042129;28;1375;-76
2023/10/11 08:19:13;;;;;;;;;;;;;;;15.32;95.60;101271.84;5060065;28;1094;-77
2023/10/11 08:21:38;;;;;;;;;;;;;;;15.37;95.14;101285.31;5052581;28;1006;-76
2023/10/11 08:24:06;;;;;;;;;;;;;;;15.46;95.17;101288.03;5055196;28;1971;-75
2023/10/11 08:26:42;;;;;;;;;;;;;;;15.51;95.99;101304.09;5035802;28;1263;-77
2023/10/11 08:29:15;;;;;;;;;;;;;;;15.59;95.49;101304.19;5033779;28;1372;-75
2023/10/11 08:31:40;;;;;;;;;;;;;;;15.63;95.55;101306.38;5038357;28;1111;-75
2023/10/11 08:34:05;;;;;;;;;;;;;;;15.68;95.28;101298.13;5048059;28;1090;-75
2023/10/11 08:36:33;;;;;;;;;;;;;;;15.72;95.97;101301.28;5054743;28;1211;-75
2023/10/11 08:39:02;;;;;;;;;;;;;;;15.75;95.55;101308.81;5036198;28;1191;-77
2023/10/11 08:41:30;;;;;;;;;;;;;;;15.77;95.71;101296.38;5047054;28;1201;-76
2023/10/11 08:43:59;;;;;;;;;;;;;;;15.79;95.65;101316.22;5036518;28;1963;-75
2023/10/11 08:46:28;;;;;;;;;;;;;;;15.81;95.39;101322.13;5051392;28;964;-76
2023/10/11 08:48:54;;;;;;;;;;;;;;;15.86;95.96;101326.91;5031472;28;1230;-77
2023/10/11 08:51:22;;;;;;;;;;;;;;;15.84;95.60;101324.44;5036506;28;1126;-75
2023/10/11 08:53:48;;;;;;;;;;;;;;;15.84;96.10;101324.44;5046505;28;1216;-76
2023/10/11 08:56:14;;;;;;;;;;;;;;;15.85;96.61;101339.16;5047801;28;1149;-75
2023/10/11 08:58:40;;;;;;;;;;;;;;;15.83;95.96;101333.28;5049268;28;1228;-75
2023/10/11 09:01:05;;;;;;;;;;;;;;;15.86;96.26;101327.72;5044070;28;1229;-74
2023/10/11 09:03:39;;;;;;;;;;;;;;;15.85;97.00;101336.56;5042665;28;1985;-75
2023/10/11 09:06:05;;;;;;;;;;;;;;;15.87;96.72;101329.38;5047950;28;1232;-75
2023/10/11 09:08:31;;;;;;;;;;;;;;;15.87;96.90;101323.31;5051652;28;1281;-75
2023/10/11 09:11:06;;;;;;;;;;;;;;;15.87;97.36;101324.13;5050741;28;1217;-75
2023/10/11 09:13:36;;;;;;;;;;;;;;;15.91;96.87;101325.50;5049001;28;1099;-74
2023/10/11 09:16:04;;;;;;;;;;;;;;;15.90;97.27;101313.38;5048477;28;1146;-76
2023/10/11 09:18:34;;;;;;;;;;;;;;;15.95;97.66;101301.66;5044330;28;1300;-75
2023/10/11 09:21:08;;;;;;;;;;;;;;;15.93;97.92;101302.63;5044525;28;1381;-76
2023/10/11 09:23:34;;;;;;;;;;;;;;;15.95;98.31;101299.06;5046282;28;1894;-76
2023/10/11 09:26:00;;;;;;;;;;;;;;;15.98;98.33;101309.22;5026943;28;1393;-75
2023/10/11 09:28:26;;;;;;;;;;;;;;;16.03;98.32;101313.03;5042022;28;1245;-77
2023/10/11 09:31:04;;;;;;;;;;;;;;;15.99;98.97;101326.53;5042739;28;1283;-76
2023/10/11 09:33:38;;;;;;;;;;;;;;;16.01;98.78;101320.22;5045512;28;1326;-75
2023/10/11 09:36:03;;;;;;;;;;;;;;;16.04;98.43;101308.59;5026586;28;1367;-74
2023/10/11 09:38:38;;;;;;;;;;;;;;;16.05;98.95;101310.25;5046505;28;1196;-76
2023/10/11 09:41:07;;;;;;;;;;;;;;;16.06;99.14;101306.69;5053484;28;1189;-75
2023/10/11 09:43:36;;;;;;;;;;;;;;;16.08;99.03;101304.72;5043584;28;1961;-75
2023/10/11 09:46:03;;;;;;;;;;;;;;;16.10;99.50;101308.00;5032769;28;1307;-76
2023/10/11 09:48:29;;;;;;;;;;;;;;;16.15;99.59;101313.63;5053542;28;1115;-75
2023/10/11 09:50:57;;;;;;;;;;;;;;;16.16;99.84;101310.03;5028113;28;1274;-75
2023/10/11 09:53:25;;;;;;;;;;;;;;;16.14;100.00;101318.03;5029374;28;1483;-74
2023/10/11 09:55:55;;;;;;;;;;;;;;;16.17;100.00;101330.00;5029640;28;1515;-77
2023/10/11 09:58:43;;;;;;;;;;;;;;;16.18;100.00;101322.00;5036417;28;1278;-75
2023/10/11 10:01:12;;;;;;;;;;;;;;;16.19;100.00;101325.44;5026834;28;1215;-76
2023/10/11 10:03:45;;;;;;;;;;;;;;;16.19;100.00;101328.06;5043763;28;1910;-75
2023/10/11 10:06:23;;;;;;;;;;;;;;;16.22;100.00;101322.50;5052672;28;1313;-75
2023/10/11 10:09:23;;;;;;;;;;;;;;;16.27;100.00;101320.28;5032413;28;1387;-75
2023/10/11 10:12:09;;;;;;;;;;;;;;;16.28;100.00;101331.56;5024097;28;1437;-75
2023/10/11 10:14:35;;;;;;;;;;;;;;;16.31;100.00;101337.34;5052752;28;948;-75
2023/10/11 10:17:10;;;;;;;;;;;;;;;16.31;100.00;101347.81;5031449;28;1287;-76
2023/10/11 10:19:39;;;;;;;;;;;;;;;16.33;100.00;101351.09;5049468;28;1133;-75
2023/10/11 10:22:15;;;;;;;;;;;;;;;16.33;100.00;101348.47;5050476;28;1969;-76
2023/10/11 10:24:41;;;;;;;;;;;;;;;16.41;100.00;101334.66;5048759;28;1070;-75
2023/10/11 10:27:36;;;;;;;;;;;;;;;16.40;100.00;101344.31;5033640;28;1196;-75
2023/10/11 10:30:04;;;;;;;;;;;;;;;16.40;100.00;101346.91;5039964;28;1309;-75
2023/10/11 10:32:29;;;;;;;;;;;;;;;16.45;100.00;101347.25;5030056;28;1243;-76
2023/10/11 10:35:14;;;;;;;;;;;;;;;16.42;100.00;101350.19;5048187;28;987;-75
2023/10/11 10:37:55;;;;;;;;;;;;;;;16.42;100.00;101342.34;5030333;28;1265;-75
2023/10/11 10:40:27;;;;;;;;;;;;;;;16.45;100.00;101355.13;5038358;28;1069;-75
2023/10/11 10:43:20;;;;;;;;;;;;;;;16.50;100.00;101361.72;5050668;28;1946;-76
2023/10/11 10:45:52;;;;;;;;;;;;;;;16.48;100.00;101342.72;5048160;28;1238;-75
2023/10/11 10:48:23;;;;;;;;;;;;;;;16.48;100.00;101350.56;5037205;28;1297;-76
2023/10/11 10:51:07;;;;;;;;;;;;;;;16.52;100.00;101349.31;5041252;28;1188;-77
2023/10/11 10:53:50;;;;;;;;;;;;;;;16.53;100.00;101348.31;5052169;28;1109;-77
2023/10/11 10:56:24;;;;;;;;;;;;;;;16.55;100.00;101348.97;5052794;28;1154;-75
2023/10/11 10:59:01;;;;;;;;;;;;;;;16.58;100.00;101343.47;5055767;28;1265;-75
2023/10/11 11:01:28;;;;;;;;;;;;;;;16.62;100.00;101339.53;5031877;28;1325;-75
2023/10/11 11:04:08;;;;;;;;;;;;;;;16.66;100.00;101338.28;5045299;28;1898;-77
2023/10/11 11:06:47;;;;;;;;;;;;;;;16.68;100.00;101334.50;5036513;28;1341;-75
2023/10/11 11:09:14;;;;;;;;;;;;;;;16.71;100.00;101328.19;5030653;28;1344;-77
2023/10/11 11:11:43;;;;;;;;;;;;;;;16.78;100.00;101333.63;5033094;28;1236;-76
2023/10/11 11:14:09;;;;;;;;;;;;;;;16.80;100.00;101321.19;5053850;28;1141;-76
2023/10/11 11:16:39;;;;;;;;;;;;;;;16.84;100.00;101312.88;5046956;28;1237;-75
2023/10/11 11:19:11;;;;;;;;;;;;;;;16.91;100.00;101316.53;5045163;28;1594;-75
2023/10/11 11:21:44;;;;;;;;;;;;;;;16.95;100.00;101304.78;5044677;28;1279;-78
2023/10/11 11:24:18;;;;;;;;;;;;;;;17.02;100.00;101309.38;5044361;28;1901;-75
2023/10/11 11:26:43;;;;;;;;;;;;;;;17.09;100.00;101305.16;5051134;28;1185;-76
2023/10/11 11:29:09;;;;;;;;;;;;;;;17.14;100.00;101289.78;5049781;28;1536;-75
2023/10/11 11:31:53;;;;;;;;;;;;;;;17.20;100.00;101289.16;5046381;28;1201;-75
2023/10/11 11:34:28;;;;;;;;;;;;;;;17.28;100.00;101278.72;5047582;28;1198;-75
2023/10/11 11:36:56;;;;;;;;;;;;;;;17.28;100.00;101265.63;5049438;28;1114;-77
2023/10/11 11:39:36;;;;;;;;;;;;;;;17.36;100.00;101265.63;5024628;28;1248;-76
2023/10/11 11:42:07;;;;;;;;;;;;;;;17.33;100.00;101265.97;5045318;28;1114;-76
2023/10/11 11:44:32;;;;;;;;;;;;;;;17.42;100.00;101266.81;5044028;28;1202;-76
2023/10/11 11:47:04;;;;;;;;;;;;;;;17.39;100.00;101265.34;5043690;28;1212;-76
2023/10/11 11:49:29;;;;;;;;;;;;;;;17.37;100.00;101241.06;5045303;28;1127;-75
2023/10/11 11:51:55;;;;;;;;;;;;;;;17.39;100.00;101252.22;5043329;28;1369;-75
2023/10/11 11:54:22;;;;;;;;;;;;;;;17.35;100.00;101250.88;5045818;28;1378;-75
2023/10/11 11:56:48;;;;;;;;;;;;;;;17.36;100.00;101249.91;5043669;28;1355;-76
2023/10/11 11:59:20;;;;;;;;;;;;;;;17.37;100.00;101248.91;5044615;28;1182;-76
2023/10/11 12:01:49;;;;;;;;;;;;;;;17.38;100.00;101247.97;5048657;28;1361;-75
2023/10/11 12:04:22;;;;;;;;;;;;;;;17.42;100.00;101251.88;5049152;28;1985;-75
2023/10/11 12:06:48;;;;;;;;;;;;;;;17.43;100.00;101244.84;5041273;28;1034;-76
2023/10/11 12:09:20;;;;;;;;;;;;;;;17.45;100.00;101238.47;5027690;28;1321;-77
2023/10/11 12:11:49;;;;;;;;;;;;;;;17.52;100.00;101233.41;5040270;28;1330;-78
2023/10/11 12:14:14;;;;;;;;;;;;;;;17.57;100.00;101240.81;5047736;28;1007;-77
2023/10/11 12:16:42;;;;;;;;;;;;;;;17.62;100.00;101243.75;5040109;28;1067;-75
2023/10/11 12:19:11;;;;;;;;;;;;;;;17.66;100.00;101234.56;5025555;28;1244;-75
2023/10/11 12:21:36;;;;;;;;;;;;;;;17.70;100.00;101233.28;5044342;28;1346;-76
2023/10/11 12:24:10;;;;;;;;;;;;;;;17.77;100.00;101231.66;5047516;28;1960;-75
2023/10/11 12:26:35;;;;;;;;;;;;;;;17.78;100.00;101234.16;5040625;28;1057;-75
2023/10/11 12:29:04;;;;;;;;;;;;;;;17.87;100.00;101229.72;5045292;28;1494;-76
2023/10/11 12:31:29;;;;;;;;;;;;;;;17.82;100.00;101229.38;5047144;28;1342;-76
2023/10/11 12:33:54;;;;;;;;;;;;;;;17.83;100.00;101228.38;5049022;28;1305;-75
2023/10/11 12:36:20;;;;;;;;;;;;;;;17.83;100.00;101236.25;5047739;28;987;-76
2023/10/11 12:38:47;;;;;;;;;;;;;;;17.84;100.00;101232.69;5033384;28;1240;-76
2023/10/11 12:41:15;;;;;;;;;;;;;;;17.88;100.00;101228.72;5026877;28;1415;-77
2023/10/11 12:43:40;;;;;;;;;;;;;;;17.86;100.00;101235.94;5044540;28;1979;-76
2023/10/11 12:46:05;;;;;;;;;;;;;;;17.87;100.00;101248.09;5047238;28;1329;-78
2023/10/11 12:48:31;;;;;;;;;;;;;;;17.88;99.91;101249.72;5042693;28;1390;-75
2023/10/11 12:50:59;;;;;;;;;;;;;;;17.88;99.75;101254.16;5042671;28;1407;-75
2023/10/11 12:53:29;;;;;;;;;;;;;;;17.85;99.71;101255.31;5046590;28;1323;-76
2023/10/11 12:55:54;;;;;;;;;;;;;;;17.85;99.88;101260.56;5036869;28;1537;-77
2023/10/11 12:58:26;;;;;;;;;;;;;;;17.84;99.56;101251.06;5045012;28;1393;-76
2023/10/11 13:00:54;;;;;;;;;;;;;;;17.82;99.66;101255.63;5049588;28;1428;-77
2023/10/11 13:03:23;;;;;;;;;;;;;;;17.83;99.75;101261.69;5026224;28;1901;-78
2023/10/11 13:05:48;;;;;;;;;;;;;;;17.83;99.71;101252.00;5050227;28;1122;-76
2023/10/11 13:08:14;;;;;;;;;;;;;;;17.85;99.65;101255.31;5039343;28;1033;-76
2023/10/11 13:10:46;;;;;;;;;;;;;;;17.85;99.58;101260.56;5038823;28;1346;-76
2023/10/11 13:13:14;;;;;;;;;;;;;;;17.85;99.48;101255.31;5047552;28;1601;-76
2023/10/11 13:15:41;;;;;;;;;;;;;;;17.83;99.46;101253.81;5045874;28;1498;-76
2023/10/11 13:18:09;;;;;;;;;;;;;;;17.81;99.53;101248.75;5045967;28;1482;-77
2023/10/11 13:20:35;;;;;;;;;;;;;;;17.83;99.60;101244.13;5046143;28;1061;-75
2023/10/11 13:23:01;;;;;;;;;;;;;;;17.85;99.24;101239.56;5040198;28;1934;-77
2023/10/11 13:25:27;;;;;;;;;;;;;;;17.91;99.50;101228.41;5048405;28;1487;-76
2023/10/11 13:27:56;;;;;;;;;;;;;;;17.96;99.55;101220.88;5046624;28;1366;-75
2023/10/11 13:30:22;;;;;;;;;;;;;;;17.98;99.32;101218.91;5051769;28;1648;-76
2023/10/11 13:32:48;;;;;;;;;;;;;;;18.01;99.34;101223.84;5046637;28;1790;-75
2023/10/11 13:35:13;;;;;;;;;;;;;;;18.08;99.21;101233.69;5040005;28;1384;-76
2023/10/11 13:37:46;;;;;;;;;;;;;;;18.07;99.14;101218.91;5038857;28;1396;-76
2023/10/11 13:40:11;;;;;;;;;;;;;;;18.13;98.76;101219.06;5049027;28;1323;-75
2023/10/11 13:42:37;;;;;;;;;;;;;;;18.11;98.84;101222.84;5033380;28;1971;-76
2023/10/11 13:45:03;;;;;;;;;;;;;;;18.12;98.67;101222.69;5041794;28;1401;-75
2023/10/11 13:47:33;;;;;;;;;;;;;;;18.13;98.64;101210.38;5046954;28;1574;-75